Time;durP1;ratioP1;P1;durP2;ratioP2;P2;SDS_P1;SDS_P2;PMS_P1;PMS_P2;Temp;Humidity;BMP_temperature;BMP_pressure;BME280_temperature;BME280_humidity;BME280_pressure;Samples;Min_cycle;Max_cycle;Signal;HPM_P1;HPM_P2
2022/01/19 00:00:55;;;;;;;45.85;18.70;;;4.30;99.90;;;;;;5076107;28;20422;-73
2022/01/19 00:03:20;;;;;;;52.17;19.38;;;4.30;99.90;;;;;;5075877;28;20044;-74
2022/01/19 00:05:46;;;;;;;47.20;18.85;;;4.20;99.90;;;;;;5076207;28;20499;-74
2022/01/19 00:08:16;;;;;;;53.38;21.92;;;4.20;99.90;;;;;;5075712;28;20044;-72
2022/01/19 00:10:43;;;;;;;56.92;22.08;;;4.20;99.90;;;;;;5058031;28;20047;-71
2022/01/19 00:13:09;;;;;;;55.47;19.80;;;4.20;99.90;;;;;;5058200;28;20052;-76
2022/01/19 00:15:34;;;;;;;52.45;19.98;;;4.20;99.90;;;;;;5057999;28;20044;-75
2022/01/19 00:18:00;;;;;;;51.90;18.88;;;4.30;99.90;;;;;;5075879;28;20067;-74
2022/01/19 00:20:28;;;;;;;62.63;23.98;;;4.20;99.90;;;;;;5075594;28;20491;-74
2022/01/19 00:22:54;;;;;;;52.58;18.25;;;4.30;99.90;;;;;;5075637;28;20049;-74
2022/01/19 00:25:20;;;;;;;48.13;19.48;;;4.20;99.90;;;;;;5075171;28;20047;-80
2022/01/19 00:27:47;;;;;;;47.88;19.45;;;4.20;99.90;;;;;;5075601;28;20492;-76
2022/01/19 00:30:13;;;;;;;52.67;18.55;;;4.20;99.90;;;;;;5037345;28;20061;-78
2022/01/19 00:32:39;;;;;;;49.15;19.00;;;4.70;99.90;;;;;;5054421;28;20052;-75
2022/01/19 00:35:06;;;;;;;43.72;17.85;;;4.30;99.90;;;;;;5054393;28;20405;-77
2022/01/19 00:37:32;;;;;;;52.88;19.00;;;4.20;99.90;;;;;;5055285;28;20044;-76
2022/01/19 00:39:58;;;;;;;49.92;17.30;;;4.20;99.90;;;;;;5054897;28;20455;-74
2022/01/19 00:42:23;;;;;;;46.70;18.27;;;4.20;99.90;;;;;;5055350;28;20045;-76
2022/01/19 00:44:49;;;;;;;52.55;18.63;;;4.20;99.90;;;;;;5054099;28;20396;-74
2022/01/19 00:47:15;;;;;;;56.15;19.45;;;5.00;99.90;;;;;;5053972;28;20048;-76
2022/01/19 00:49:42;;;;;;;48.08;18.58;;;5.00;99.90;;;;;;5053894;28;20044;-73
2022/01/19 00:52:09;;;;;;;48.03;19.42;;;4.20;99.90;;;;;;5055263;28;20087;-74
2022/01/19 00:54:36;;;;;;;51.08;17.27;;;4.20;99.90;;;;;;5054812;28;20044;-74
2022/01/19 00:57:02;;;;;;;46.10;17.92;;;4.20;99.90;;;;;;5053584;28;20083;-74
2022/01/19 00:59:28;;;;;;;51.10;19.88;;;4.20;99.90;;;;;;5055092;28;20045;-78
2022/01/19 01:01:53;;;;;;;50.80;18.17;;;4.20;99.90;;;;;;5054979;28;20056;-74
2022/01/19 01:04:19;;;;;;;47.47;18.85;;;4.20;99.90;;;;;;5054743;28;20045;-75
2022/01/19 01:06:45;;;;;;;53.83;18.30;;;4.20;99.90;;;;;;5053674;28;20107;-75
2022/01/19 01:09:11;;;;;;;53.60;20.30;;;4.20;99.90;;;;;;5053665;28;20052;-74
2022/01/19 01:11:46;;;;;;;48.63;20.95;;;4.40;99.90;;;;;;5054425;28;20040;-78
2022/01/19 01:16:58;;;;;;;51.33;19.38;;;4.20;99.90;;;;;;5054565;28;20485;-76
2022/01/19 01:19:24;;;;;;;52.97;20.08;;;4.10;99.90;;;;;;5053257;28;20499;-75
2022/01/19 01:21:50;;;;;;;55.30;20.90;;;4.10;99.90;;;;;;5053335;28;20041;-76
2022/01/19 01:24:16;;;;;;;56.63;20.70;;;4.10;99.90;;;;;;5053519;28;20061;-77
2022/01/19 01:26:42;;;;;;;52.80;20.08;;;4.10;99.90;;;;;;5053987;28;20440;-75
2022/01/19 01:29:07;;;;;;;54.35;20.35;;;4.10;99.90;;;;;;5059765;28;20098;-73
2022/01/19 01:31:33;;;;;;;55.50;21.23;;;4.10;99.90;;;;;;5056175;28;20103;-73
2022/01/19 01:33:59;;;;;;;53.55;21.08;;;4.10;99.90;;;;;;5074084;28;20032;-80
2022/01/19 01:36:24;;;;;;;57.15;20.73;;;4.30;99.90;;;;;;5074260;28;20040;-73
2022/01/19 01:38:50;;;;;;;56.05;20.35;;;4.50;99.90;;;;;;5074400;28;20048;-79
2022/01/19 01:41:15;;;;;;;52.35;20.10;;;4.10;99.90;;;;;;5074086;28;20047;-74
2022/01/19 01:43:43;;;;;;;56.78;21.75;;;4.00;99.90;;;;;;5073681;28;20124;-73
2022/01/19 01:46:18;;;;;;;52.63;20.15;;;4.10;99.90;;;;;;5074169;28;20036;-73
2022/01/19 01:48:46;;;;;;;49.17;17.70;;;4.00;99.90;;;;;;5073865;28;20492;-72
2022/01/19 01:53:58;;;;;;;46.45;17.38;;;4.10;99.90;;;;;;5055938;28;20059;-75
2022/01/19 01:56:23;;;;;;;56.25;18.38;;;4.10;99.90;;;;;;5056167;28;20579;-73
2022/01/19 01:58:49;;;;;;;49.53;18.27;;;4.10;99.90;;;;;;5055336;28;20178;-72
2022/01/19 02:01:16;;;;;;;49.33;19.45;;;4.10;99.90;;;;;;5055767;28;20048;-72
2022/01/19 02:03:44;;;;;;;46.83;18.85;;;4.10;99.90;;;;;;5073069;28;20074;-73
2022/01/19 02:24:22;;;;;;;44.30;15.93;;;4.00;99.90;;;;;;5054922;28;20061;-77
2022/01/19 02:27:00;;;;;;;48.35;16.77;;;3.90;99.90;;;;;;5038694;28;20052;-72
2022/01/19 02:40:17;;;;;;;47.83;15.88;;;3.40;99.90;;;;;;5073025;28;20049;-73
2022/01/19 02:50:40;;;;;;;45.95;15.52;;;3.00;99.90;;;;;;5073142;28;20048;-71
2022/01/19 02:53:06;;;;;;;42.63;16.33;;;2.90;99.90;;;;;;5057463;28;20060;-73
2022/01/19 02:55:34;;;;;;;45.90;15.90;;;2.90;99.90;;;;;;5092523;28;20032;-75
2022/01/19 02:58:00;;;;;;;39.47;14.00;;;2.90;99.90;;;;;;5089076;28;20048;-72
2022/01/19 03:08:50;;;;;;;33.45;12.43;;;2.70;99.90;;;;;;5055067;28;20492;-77
2022/01/19 03:11:18;;;;;;;33.17;13.32;;;2.60;99.90;;;;;;5073062;28;20048;-76
2022/01/19 03:13:45;;;;;;;38.85;13.25;;;2.60;99.90;;;;;;5054299;28;20531;-74
2022/01/19 03:16:11;;;;;;;39.15;13.60;;;2.50;99.90;;;;;;5054010;28;20044;-74
2022/01/19 03:18:37;;;;;;;35.80;12.95;;;2.50;99.90;;;;;;5072198;28;20045;-72
2022/01/19 03:21:03;;;;;;;38.22;15.02;;;2.60;99.90;;;;;;5038356;28;20053;-72
2022/01/19 03:23:29;;;;;;;34.13;13.27;;;2.60;99.90;;;;;;5072582;28;20476;-72
2022/01/19 03:25:56;;;;;;;37.92;13.25;;;2.60;99.90;;;;;;5054510;28;20041;-71
2022/01/19 03:28:22;;;;;;;36.10;13.77;;;2.70;99.90;;;;;;5054441;28;20127;-71
2022/01/19 03:30:48;;;;;;;40.15;12.73;;;2.70;99.90;;;;;;5054435;28;20136;-71
2022/01/19 03:33:14;;;;;;;40.75;13.93;;;2.70;99.90;;;;;;5054171;28;20049;-71
2022/01/19 03:35:40;;;;;;;34.10;12.98;;;2.80;99.90;;;;;;5072377;28;20488;-71
2022/01/19 03:38:07;;;;;;;39.75;14.38;;;2.70;99.90;;;;;;5054514;28;20036;-72
2022/01/19 03:40:33;;;;;;;39.63;13.75;;;2.90;99.90;;;;;;5072254;28;20067;-72
2022/01/19 03:42:59;;;;;;;36.47;14.55;;;2.90;99.90;;;;;;5072357;28;20044;-72
2022/01/19 03:45:25;;;;;;;37.33;13.13;;;2.90;99.90;;;;;;5072236;28;20391;-70
2022/01/19 03:50:36;;;;;;;40.30;13.82;;;2.80;99.90;;;;;;5029952;28;20463;-71
2022/01/19 03:53:02;;;;;;;36.30;13.15;;;3.30;99.90;;;;;;5030059;28;20132;-70
2022/01/19 03:55:28;;;;;;;37.67;13.45;;;2.80;99.90;;;;;;5029919;28;20112;-74
2022/01/19 03:57:54;;;;;;;35.90;13.77;;;2.80;99.90;;;;;;5030188;28;20050;-72
2022/01/19 04:00:20;;;;;;;35.95;14.50;;;2.70;99.90;;;;;;5030164;28;20448;-76
2022/01/19 04:02:50;;;;;;;41.10;14.85;;;2.70;99.90;;;;;;5030012;28;20049;-76
2022/01/19 04:05:22;;;;;;;38.63;15.68;;;2.80;99.90;;;;;;5012310;28;20111;-75
2022/01/19 04:07:48;;;;;;;;;;;3.60;99.90;;;;;;5013841;28;20065;-75
2022/01/19 04:10:14;;;;;;;41.40;13.70;;;2.80;99.90;;;;;;5029953;28;19917;-74
2022/01/19 04:12:53;;;;;;;39.80;14.98;;;2.90;99.90;;;;;;5030107;28;20386;-73
2022/01/19 04:15:20;;;;;;;42.80;14.30;;;3.00;99.90;;;;;;5029949;28;20087;-74
2022/01/19 04:17:53;;;;;;;43.95;16.40;;;3.00;99.90;;;;;;5029703;28;20052;-75
2022/01/19 04:20:25;;;;;;;46.55;15.57;;;3.00;99.90;;;;;;5029419;28;20041;-75
2022/01/19 04:22:51;;;;;;;49.37;17.27;;;3.00;99.90;;;;;;5013092;28;20053;-75
2022/01/19 04:25:16;;;;;;;43.35;16.58;;;3.00;99.90;;;;;;5029846;28;20312;-76
2022/01/19 04:27:43;;;;;;;48.22;17.02;;;3.10;99.90;;;;;;5053742;28;20141;-73
2022/01/19 04:30:12;;;;;;;55.72;16.48;;;3.10;99.90;;;;;;5075338;28;20067;-75
2022/01/19 04:35:27;;;;;;;51.78;17.23;;;4.00;99.90;;;;;;5057156;28;20048;-73
2022/01/19 04:38:13;;;;;;;49.92;18.73;;;3.00;99.90;;;;;;5075023;28;20052;-77
2022/01/19 04:54:06;;;;;;;45.10;17.40;;;3.60;99.90;;;;;;5057221;28;20240;-74
2022/01/19 05:03:01;;;;;;;43.63;17.20;;;3.10;99.90;;;;;;5075042;28;20403;-77
2022/01/19 05:05:23;;;;;;;47.03;19.08;;;3.10;99.90;;;;;;5074262;28;20049;-71
2022/01/19 05:15:43;;;;;;;44.83;18.20;;;3.10;99.90;;;;;;5074722;28;20048;-71
2022/01/19 05:18:09;;;;;;;54.72;18.55;;;3.10;99.90;;;;;;5074551;28;20049;-73
2022/01/19 05:20:35;;;;;;;44.58;18.38;;;4.50;99.90;;;;;;5074329;28;20046;-76
2022/01/19 05:23:01;;;;;;;44.40;18.88;;;3.10;99.90;;;;;;5074265;28;20051;-73
2022/01/19 05:25:26;;;;;;;52.60;19.55;;;3.10;99.90;;;;;;5074468;28;20048;-73
2022/01/19 05:27:52;;;;;;;53.28;20.60;;;3.20;99.90;;;;;;5074344;28;20198;-78
2022/01/19 05:30:18;;;;;;;50.28;20.50;;;3.20;99.90;;;;;;5056484;28;20057;-74
2022/01/19 05:32:45;;;;;;;52.97;20.40;;;3.20;99.90;;;;;;5074354;28;20052;-72
2022/01/19 05:35:11;;;;;;;53.10;20.48;;;3.20;99.90;;;;;;5074464;28;20048;-73
2022/01/19 05:37:36;;;;;;;49.13;21.42;;;3.20;99.90;;;;;;5056069;28;20443;-79
2022/01/19 05:40:06;;;;;;;51.53;21.15;;;3.30;99.90;;;;;;5073185;28;20052;-71
2022/01/19 05:42:31;;;;;;;52.50;21.77;;;3.30;99.90;;;;;;5074151;28;20044;-73
2022/01/19 05:44:57;;;;;;;55.67;22.48;;;3.30;99.90;;;;;;5056124;28;20052;-73
2022/01/19 05:47:23;;;;;;;52.05;22.27;;;3.30;99.90;;;;;;5074114;28;20400;-76
2022/01/19 05:49:49;;;;;;;56.83;24.88;;;3.40;99.90;;;;;;5074051;28;20036;-74
2022/01/19 05:52:14;;;;;;;49.75;22.63;;;3.40;99.90;;;;;;5074007;28;20102;-73
2022/01/19 05:54:40;;;;;;;51.50;21.17;;;3.40;99.90;;;;;;5055692;28;20044;-72
2022/01/19 05:57:06;;;;;;;54.65;21.98;;;3.40;99.90;;;;;;5073881;28;20048;-72
2022/01/19 05:59:32;;;;;;;51.00;22.55;;;3.40;99.90;;;;;;5073594;28;20097;-73
2022/01/19 06:01:58;;;;;;;52.85;23.58;;;3.50;99.90;;;;;;5073705;28;20044;-72
2022/01/19 06:04:24;;;;;;;51.92;22.70;;;3.50;99.90;;;;;;5073613;28;20048;-75
2022/01/19 06:06:52;;;;;;;56.08;23.20;;;3.50;99.90;;;;;;5073454;28;20070;-73
2022/01/19 06:09:33;;;;;;;54.47;23.38;;;3.50;99.90;;;;;;5073597;28;20049;-73
2022/01/19 06:12:04;;;;;;;53.05;21.55;;;3.50;99.90;;;;;;5055146;28;20044;-72
2022/01/19 06:14:31;;;;;;;56.70;21.90;;;3.50;99.90;;;;;;5073352;28;20419;-73
2022/01/19 06:16:57;;;;;;;52.17;22.33;;;3.50;99.90;;;;;;5038384;28;20056;-74
2022/01/19 06:19:23;;;;;;;46.78;22.80;;;3.60;99.90;;;;;;5073286;28;20052;-72
2022/01/19 06:21:48;;;;;;;56.25;21.77;;;3.60;99.90;;;;;;5073637;28;20120;-72
2022/01/19 06:24:14;;;;;;;50.75;21.73;;;3.60;99.90;;;;;;5073421;28;20102;-75
2022/01/19 06:26:40;;;;;;;51.88;22.17;;;3.60;99.90;;;;;;5069195;28;20045;-70
2022/01/19 06:29:05;;;;;;;59.60;23.67;;;3.60;99.90;;;;;;5051480;28;20084;-74
2022/01/19 06:31:31;;;;;;;57.95;22.05;;;3.60;99.90;;;;;;5071948;28;20048;-71
2022/01/19 06:33:57;;;;;;;54.15;21.35;;;3.60;99.90;;;;;;5054509;28;20067;-71
2022/01/19 06:36:23;;;;;;;49.25;21.98;;;3.60;99.90;;;;;;5053959;28;20052;-72
2022/01/19 06:38:48;;;;;;;55.80;24.15;;;3.60;99.90;;;;;;5072150;28;20408;-72
2022/01/19 06:41:14;;;;;;;36.67;12.75;;;3.60;99.90;;;;;;5072018;28;20400;-71
2022/01/19 06:43:40;;;;;;;34.08;11.85;;;3.60;99.90;;;;;;5071487;28;20103;-75
2022/01/19 06:46:05;;;;;;;34.80;13.15;;;3.60;99.90;;;;;;5072416;28;20051;-75
2022/01/19 06:48:31;;;;;;;35.88;12.10;;;3.60;99.90;;;;;;5059435;28;20044;-73
2022/01/19 06:50:57;;;;;;;42.97;13.52;;;3.60;99.90;;;;;;5093749;28;20089;-71
2022/01/19 06:53:23;;;;;;;28.98;10.85;;;3.60;99.90;;;;;;5070787;28;20412;-76
2022/01/19 06:55:49;;;;;;;37.83;10.02;;;3.60;99.90;;;;;;5072649;28;20055;-71
2022/01/19 06:58:15;;;;;;;29.83;11.65;;;3.60;99.90;;;;;;5072970;28;20063;-72
2022/01/19 07:00:40;;;;;;;27.80;11.32;;;3.50;99.90;;;;;;5073094;28;20086;-71
2022/01/19 07:03:06;;;;;;;27.77;11.50;;;3.50;99.90;;;;;;5073258;28;20040;-77
2022/01/19 07:05:32;;;;;;;39.00;13.05;;;3.50;99.90;;;;;;5054848;28;20044;-75
2022/01/19 07:07:58;;;;;;;34.88;10.90;;;3.50;99.90;;;;;;5073188;28;20510;-72
2022/01/19 07:10:24;;;;;;;31.50;11.23;;;3.50;99.90;;;;;;5072727;28;20040;-74
2022/01/19 07:12:50;;;;;;;31.42;10.77;;;3.50;99.90;;;;;;5072638;28;20179;-73
2022/01/19 07:15:16;;;;;;;27.27;10.10;;;3.50;99.90;;;;;;5072681;28;20115;-73
2022/01/19 07:17:42;;;;;;;29.25;10.32;;;3.50;99.90;;;;;;5072819;28;20565;-72
2022/01/19 07:20:09;;;;;;;25.50;11.30;;;3.50;99.90;;;;;;5073062;28;20116;-76
2022/01/19 07:22:34;;;;;;;29.10;11.27;;;3.40;99.90;;;;;;5054885;28;20068;-72
2022/01/19 07:25:00;;;;;;;32.58;10.60;;;4.00;99.90;;;;;;5072788;28;20153;-75
2022/01/19 07:27:26;;;;;;;28.77;10.80;;;3.40;99.90;;;;;;5072985;28;20040;-73
2022/01/19 07:29:52;;;;;;;28.48;10.50;;;3.30;99.90;;;;;;5054288;28;20102;-73
2022/01/19 07:32:19;;;;;;;30.23;10.38;;;3.30;99.90;;;;;;5072523;28;20055;-73
2022/01/19 07:34:45;;;;;;;25.02;10.45;;;3.60;99.90;;;;;;5073078;28;20400;-73
2022/01/19 07:37:11;;;;;;;29.70;10.70;;;3.30;99.90;;;;;;5054730;28;20055;-72
2022/01/19 07:39:37;;;;;;;25.80;10.60;;;3.30;99.90;;;;;;5072687;28;20037;-73
2022/01/19 07:42:04;;;;;;;26.65;9.85;;;3.30;99.90;;;;;;5054379;28;20052;-71
2022/01/19 07:44:30;;;;;;;23.70;9.95;;;3.30;99.90;;;;;;5072551;28;20072;-72
2022/01/19 07:46:56;;;;;;;24.50;9.65;;;3.20;99.90;;;;;;5072036;28;20528;-74
2022/01/19 07:49:22;;;;;;;21.42;9.20;;;3.20;99.90;;;;;;5072649;28;20067;-73
2022/01/19 07:51:47;;;;;;;22.75;9.57;;;3.20;99.90;;;;;;5072795;28;20102;-72
2022/01/19 07:54:13;;;;;;;29.25;10.98;;;3.20;99.90;;;;;;5072154;28;20051;-74
2022/01/19 07:56:39;;;;;;;35.35;12.90;;;3.90;99.90;;;;;;5054518;28;20399;-74
2022/01/19 07:59:04;;;;;;;31.42;12.18;;;3.30;99.90;;;;;;5072625;28;20098;-71
2022/01/19 08:01:31;;;;;;;29.95;11.48;;;3.20;99.90;;;;;;5072936;28;20076;-72
2022/01/19 08:04:00;;;;;;;23.20;9.93;;;3.20;99.90;;;;;;5076334;28;20044;-72
2022/01/19 08:06:26;;;;;;;20.92;10.15;;;3.20;99.90;;;;;;5041485;28;20052;-71
2022/01/19 08:08:52;;;;;;;27.17;9.32;;;3.60;99.90;;;;;;5058050;28;20044;-72
2022/01/19 08:11:17;;;;;;;28.70;11.00;;;3.20;99.90;;;;;;5076409;28;20166;-73
2022/01/19 08:13:43;;;;;;;28.63;11.15;;;3.20;99.90;;;;;;5076168;28;20048;-72
2022/01/19 08:16:09;;;;;;;19.33;9.18;;;3.20;99.90;;;;;;5075669;28;20044;-72
2022/01/19 08:18:35;;;;;;;26.55;9.73;;;3.30;99.90;;;;;;5076035;28;20416;-73
2022/01/19 08:21:02;;;;;;;28.40;11.15;;;3.10;99.90;;;;;;5075896;28;20047;-72
2022/01/19 08:23:27;;;;;;;21.92;10.23;;;3.10;99.90;;;;;;5057751;28;20058;-72
2022/01/19 08:25:53;;;;;;;23.88;10.65;;;3.10;99.90;;;;;;5075982;28;20052;-72
2022/01/19 08:28:20;;;;;;;24.35;10.93;;;3.10;99.90;;;;;;5056225;28;20120;-74
2022/01/19 08:30:46;;;;;;;28.75;10.20;;;3.10;99.90;;;;;;5075245;28;20049;-75
2022/01/19 08:33:12;;;;;;;26.27;11.25;;;3.50;99.90;;;;;;5060080;28;20047;-72
2022/01/19 08:35:38;;;;;;;29.05;10.90;;;3.60;99.90;;;;;;5074511;28;20407;-75
2022/01/19 08:38:04;;;;;;;30.45;10.88;;;3.10;99.90;;;;;;5071893;28;20044;-74
2022/01/19 08:40:30;;;;;;;27.15;11.30;;;3.10;99.90;;;;;;5054253;28;20044;-74
2022/01/19 08:42:56;;;;;;;28.10;10.45;;;3.10;99.90;;;;;;5055101;28;20047;-75
2022/01/19 08:45:23;;;;;;;24.88;10.10;;;3.10;99.90;;;;;;5055657;28;20091;-75
2022/01/19 08:47:49;;;;;;;26.25;9.50;;;3.10;99.90;;;;;;5074187;28;20064;-73
2022/01/19 08:50:16;;;;;;;27.42;10.25;;;3.10;99.90;;;;;;5073103;28;20445;-74
2022/01/19 08:52:45;;;;;;;23.25;8.93;;;3.10;99.90;;;;;;5071806;28;20048;-71
2022/01/19 08:55:11;;;;;;;24.40;10.90;;;3.10;99.90;;;;;;5071969;28;20089;-73
2022/01/19 08:57:37;;;;;;;21.85;9.80;;;3.10;99.90;;;;;;5071516;28;20454;-72
2022/01/19 09:00:11;;;;;;;24.73;10.25;;;3.10;99.90;;;;;;5068993;28;20049;-73
2022/01/19 09:02:37;;;;;;;28.95;9.65;;;3.10;99.90;;;;;;5052195;28;20060;-73
2022/01/19 09:05:04;;;;;;;25.10;9.30;;;3.10;99.90;;;;;;5053893;28;20527;-73
2022/01/19 09:07:30;;;;;;;25.13;11.35;;;3.10;99.90;;;;;;5076229;28;20048;-74
2022/01/19 09:09:55;;;;;;;24.63;9.38;;;3.20;99.90;;;;;;5054221;28;20055;-75
2022/01/19 09:12:21;;;;;;;28.35;10.77;;;3.20;99.90;;;;;;5071356;28;20480;-75
2022/01/19 09:14:47;;;;;;;22.83;10.27;;;3.20;99.90;;;;;;5053316;28;20041;-76
2022/01/19 09:17:12;;;;;;;23.40;11.32;;;3.30;99.90;;;;;;5053391;28;20194;-75
2022/01/19 09:19:39;;;;;;;25.27;10.55;;;3.30;99.90;;;;;;5051028;28;20441;-73
2022/01/19 09:22:06;;;;;;;21.08;10.45;;;3.30;99.90;;;;;;5049004;28;20054;-74
2022/01/19 09:24:40;;;;;;;26.10;9.93;;;3.30;99.90;;;;;;5053667;28;20051;-75
2022/01/19 09:27:08;;;;;;;26.17;9.75;;;3.40;99.90;;;;;;5071421;28;20391;-75
2022/01/19 09:29:38;;;;;;;25.00;10.50;;;3.40;99.90;;;;;;5069648;28;20125;-75
2022/01/19 09:32:08;;;;;;;26.63;10.48;;;3.40;99.90;;;;;;5069120;28;20072;-68
2022/01/19 09:34:34;;;;;;;28.48;11.50;;;3.40;99.90;;;;;;5070982;28;20045;-69
2022/01/19 09:37:00;;;;;;;26.25;11.40;;;4.10;99.90;;;;;;5054602;28;20119;-70
2022/01/19 09:39:26;;;;;;;23.48;11.00;;;3.40;99.90;;;;;;5052235;28;20191;-72
2022/01/19 09:41:54;;;;;;;28.52;11.98;;;3.70;99.90;;;;;;5067787;28;20044;-72
2022/01/19 09:44:22;;;;;;;25.08;12.13;;;3.50;99.90;;;;;;5052777;28;20522;-72
2022/01/19 09:46:48;;;;;;;27.63;12.30;;;3.50;99.90;;;;;;5074124;28;20121;-69
2022/01/19 09:49:17;;;;;;;32.10;13.48;;;3.50;99.90;;;;;;5074839;28;20052;-68
2022/01/19 09:51:44;;;;;;;32.05;13.63;;;3.50;99.90;;;;;;5050475;28;20049;-70
2022/01/19 09:54:20;;;;;;;33.08;14.23;;;3.50;99.90;;;;;;5051656;28;20049;-70
2022/01/19 09:56:48;;;;;;;26.67;11.10;;;3.50;99.90;;;;;;5070236;28;20813;-70
2022/01/19 09:59:15;;;;;;;23.42;11.65;;;3.50;99.90;;;;;;5070644;28;20514;-70
2022/01/19 10:01:56;;;;;;;28.27;12.48;;;3.50;99.90;;;;;;5049348;28;20048;-69
2022/01/19 10:04:27;;;;;;;32.20;12.70;;;3.60;99.90;;;;;;5071442;28;20056;-71
2022/01/19 10:07:19;;;;;;;26.13;11.32;;;3.60;99.90;;;;;;5051588;28;20080;-70
2022/01/19 10:09:52;;;;;;;31.90;13.70;;;3.60;99.90;;;;;;5069532;28;20045;-70
2022/01/19 10:18:05;;;;;;;26.50;12.68;;;3.70;99.90;;;;;;5071800;28;20086;-70
2022/01/19 10:20:31;;;;;;;31.42;13.57;;;3.90;99.90;;;;;;5048754;28;20052;-72
2022/01/19 10:22:56;;;;;;;33.53;14.85;;;3.90;99.90;;;;;;5051104;28;20416;-70
2022/01/19 10:25:22;;;;;;;36.45;14.98;;;3.90;99.90;;;;;;5069448;28;20099;-69
2022/01/19 10:27:47;;;;;;;35.83;13.90;;;4.00;99.90;;;;;;5070478;28;20044;-69
2022/01/19 10:30:17;;;;;;;31.85;14.65;;;4.40;99.90;;;;;;5051272;28;20429;-72
2022/01/19 10:32:59;;;;;;;35.00;14.05;;;3.90;99.90;;;;;;5055116;28;20072;-70
2022/01/19 10:35:30;;;;;;;;;;;3.90;99.90;;;;;;5052172;28;20177;-70
2022/01/19 10:38:12;;;;;;;28.48;13.30;;;3.90;99.90;;;;;;5081174;28;19927;-70
2022/01/19 10:40:41;;;;;;;31.83;14.35;;;3.90;99.90;;;;;;5049005;28;20068;-70
2022/01/19 10:43:27;;;;;;;30.15;13.52;;;4.00;99.90;;;;;;5069538;28;20553;-70
2022/01/19 10:45:54;;;;;;;36.72;13.48;;;4.00;99.90;;;;;;5069247;28;20458;-69
2022/01/19 10:48:37;;;;;;;29.77;12.70;;;4.00;99.90;;;;;;5071513;28;20568;-70
2022/01/19 10:51:08;;;;;;;35.00;13.95;;;4.10;99.90;;;;;;5070227;28;20040;-71
2022/01/19 10:53:33;;;;;;;38.22;15.20;;;4.50;99.90;;;;;;5052846;28;20060;-70
2022/01/19 10:56:01;;;;;;;27.58;11.82;;;4.20;99.90;;;;;;5070006;28;20457;-69
2022/01/19 10:58:27;;;;;;;36.63;14.35;;;4.20;99.90;;;;;;5071699;28;20048;-71
2022/01/19 11:00:54;;;;;;;27.83;13.23;;;4.20;99.90;;;;;;5068420;28;20044;-70
2022/01/19 11:03:28;;;;;;;35.25;13.75;;;4.20;99.90;;;;;;5051331;28;20487;-70
2022/01/19 11:05:59;;;;;;;30.27;12.80;;;4.20;99.90;;;;;;5069280;28;20098;-70
2022/01/19 11:08:27;;;;;;;34.33;14.73;;;4.20;99.90;;;;;;5069964;28;20048;-69
2022/01/19 11:10:55;;;;;;;30.65;13.43;;;4.20;99.90;;;;;;5067036;28;20070;-70
2022/01/19 11:13:39;;;;;;;30.02;13.32;;;4.40;99.90;;;;;;5069622;28;20377;-72
2022/01/19 11:16:06;;;;;;;30.00;12.25;;;4.20;99.90;;;;;;5050967;28;20506;-69
2022/01/19 11:18:35;;;;;;;32.25;13.52;;;4.20;99.90;;;;;;5070002;28;20377;-70
2022/01/19 11:21:09;;;;;;;31.60;12.85;;;4.20;99.90;;;;;;5048964;28;20108;-70
2022/01/19 11:24:00;;;;;;;35.92;13.68;;;4.20;99.90;;;;;;5069888;28;20053;-69
2022/01/19 11:26:31;;;;;;;36.80;14.95;;;4.10;99.90;;;;;;5069474;28;20087;-70
2022/01/19 11:29:18;;;;;;;36.80;14.38;;;4.10;99.90;;;;;;5053044;28;20072;-70
2022/01/19 11:31:43;;;;;;;41.40;15.23;;;4.10;99.90;;;;;;5049586;28;20404;-70
2022/01/19 11:34:09;;;;;;;32.10;13.52;;;4.10;99.90;;;;;;5071173;28;20060;-69
2022/01/19 11:36:40;;;;;;;33.33;13.98;;;4.10;99.90;;;;;;5053948;28;20145;-71
2022/01/19 11:39:22;;;;;;;37.05;14.38;;;4.10;99.90;;;;;;5076098;28;20032;-70
2022/01/19 11:41:56;;;;;;;41.88;15.57;;;4.10;99.90;;;;;;5055469;28;20522;-71
2022/01/19 11:44:30;;;;;;;43.75;16.48;;;4.10;99.90;;;;;;5078409;28;20113;-70
2022/01/19 11:47:16;;;;;;;37.00;14.50;;;4.00;99.90;;;;;;5059028;28;20052;-69
2022/01/19 11:50:09;;;;;;;33.50;14.75;;;4.00;99.90;;;;;;5069869;28;20052;-69
2022/01/19 11:52:38;;;;;;;32.40;14.00;;;4.00;99.90;;;;;;5054432;28;20087;-70
2022/01/19 11:55:25;;;;;;;40.15;15.55;;;4.50;99.90;;;;;;5053465;28;20052;-70
2022/01/19 11:58:15;;;;;;;36.10;15.80;;;4.10;99.90;;;;;;5051654;28;20056;-70
2022/01/19 12:00:44;;;;;;;44.55;18.55;;;4.10;99.90;;;;;;5049974;28;20427;-70
2022/01/19 12:03:28;;;;;;;38.38;16.17;;;4.10;99.90;;;;;;5072262;28;20135;-70
2022/01/19 12:05:56;;;;;;;43.28;19.02;;;4.10;99.90;;;;;;5072358;28;20037;-72
2022/01/19 12:08:32;;;;;;;34.85;15.52;;;4.10;99.90;;;;;;5072947;28;20381;-73
2022/01/19 12:11:14;;;;;;;46.05;16.98;;;4.10;99.90;;;;;;5070211;28;20066;-70
2022/01/19 12:16:29;;;;;;;41.97;15.40;;;4.10;99.90;;;;;;5076251;28;20530;-73
2022/01/19 12:19:20;;;;;;;36.55;13.77;;;4.10;99.90;;;;;;5058265;28;20047;-72
2022/01/19 12:21:51;;;;;;;51.85;19.67;;;4.10;99.90;;;;;;5070315;28;20049;-71
2022/01/19 12:24:19;;;;;;;48.30;20.35;;;4.40;99.90;;;;;;5037566;28;20879;-74
2022/01/19 12:27:11;;;;;;;52.70;19.58;;;4.20;99.90;;;;;;5054600;28;20052;-72
2022/01/19 12:29:40;;;;;;;47.28;18.83;;;4.20;99.90;;;;;;5068730;28;20044;-72
2022/01/19 12:32:35;;;;;;;45.03;19.27;;;4.20;99.90;;;;;;5071163;28;20055;-72
2022/01/19 12:35:17;;;;;;;45.78;17.85;;;4.20;99.90;;;;;;5072072;28;20448;-71
2022/01/19 12:37:44;;;;;;;;;;;4.30;99.90;;;;;;5054874;28;20053;-75
2022/01/19 12:40:19;;;;;;;50.95;21.88;;;4.30;99.90;;;;;;5036933;28;20023;-75
2022/01/19 12:42:49;;;;;;;50.92;19.83;;;4.30;99.90;;;;;;5056518;28;20074;-74
2022/01/19 12:45:34;;;;;;;43.40;17.80;;;4.30;99.90;;;;;;5053336;28;20415;-74
2022/01/19 12:48:06;;;;;;;45.58;20.30;;;4.30;99.90;;;;;;5053368;28;20090;-75
2022/01/19 12:50:48;;;;;;;56.40;23.63;;;4.30;99.90;;;;;;5069288;28;20041;-76
2022/01/19 12:53:20;;;;;;;52.95;19.95;;;4.60;99.90;;;;;;5071360;28;20052;-77
2022/01/19 12:55:52;;;;;;;59.60;20.90;;;4.30;99.90;;;;;;5053890;28;20049;-75
2022/01/19 12:58:27;;;;;;;48.72;20.15;;;4.30;99.90;;;;;;5054259;28;20048;-75
2022/01/19 13:00:57;;;;;;;52.88;20.95;;;4.30;99.90;;;;;;5068459;28;20037;-74
2022/01/19 13:03:29;;;;;;;54.50;21.70;;;4.20;99.90;;;;;;5067917;28;20612;-76
2022/01/19 13:06:02;;;;;;;56.88;21.83;;;4.20;99.90;;;;;;5071436;28;20079;-75
2022/01/19 13:08:37;;;;;;;51.83;19.63;;;4.30;99.90;;;;;;5071940;28;20047;-73
2022/01/19 13:11:24;;;;;;;50.35;21.73;;;4.20;99.90;;;;;;5068011;28;20131;-74
2022/01/19 13:13:57;;;;;;;62.63;23.55;;;4.20;99.90;;;;;;5075973;28;20044;-74
2022/01/19 13:16:36;;;;;;;57.78;23.38;;;4.30;99.90;;;;;;5055861;28;20052;-74
2022/01/19 13:19:11;;;;;;;61.22;21.33;;;4.30;99.90;;;;;;5054315;28;20056;-73
2022/01/19 13:21:37;;;;;;;56.17;19.70;;;4.30;99.90;;;;;;5052067;28;20503;-73
2022/01/19 13:24:08;;;;;;;46.45;19.42;;;4.30;99.90;;;;;;5053718;28;20052;-76
2022/01/19 13:26:55;;;;;;;57.40;22.10;;;4.30;99.90;;;;;;5051802;28;20082;-75
2022/01/19 13:29:22;;;;;;;54.95;19.60;;;4.30;99.90;;;;;;5071328;28;20373;-75
2022/01/19 13:32:03;;;;;;;60.88;20.92;;;4.30;99.90;;;;;;5069681;28;20072;-76
2022/01/19 13:34:33;;;;;;;55.38;22.52;;;4.40;99.90;;;;;;5054116;28;20442;-76
2022/01/19 13:37:02;;;;;;;55.72;22.58;;;4.40;99.90;;;;;;5075402;28;20044;-75
2022/01/19 13:39:32;;;;;;;50.67;20.00;;;4.40;99.90;;;;;;5070913;28;20048;-72
2022/01/19 13:41:59;;;;;;;49.78;20.95;;;4.40;99.90;;;;;;5069316;28;20044;-74
2022/01/19 13:44:33;;;;;;;52.90;21.50;;;4.40;99.90;;;;;;5070338;28;21113;-77
2022/01/19 13:47:10;;;;;;;58.60;21.20;;;4.40;99.90;;;;;;5070188;28;20060;-76
2022/01/19 13:49:37;;;;;;;50.35;19.55;;;4.40;99.90;;;;;;5051161;28;20272;-78
2022/01/19 13:52:04;;;;;;;45.38;18.42;;;4.40;99.90;;;;;;5068963;28;20111;-76
2022/01/19 13:54:31;;;;;;;47.30;20.52;;;4.40;99.90;;;;;;5034091;28;20080;-80
2022/01/19 13:57:00;;;;;;;51.33;19.88;;;4.40;99.90;;;;;;5051384;28;20593;-71
2022/01/19 13:59:26;;;;;;;55.03;21.25;;;4.40;99.90;;;;;;5065644;28;20046;-75
2022/01/19 14:02:00;;;;;;;47.95;17.90;;;4.50;99.90;;;;;;5051114;28;20059;-76
2022/01/19 14:04:33;;;;;;;56.92;21.00;;;4.40;99.90;;;;;;5069897;28;20127;-73
2022/01/19 14:07:16;;;;;;;;;;;4.80;99.90;;;;;;5068725;28;20209;-75
2022/01/19 14:09:42;;;;;;;51.67;19.75;;;4.40;99.90;;;;;;5069265;28;19920;-74
2022/01/19 14:12:16;;;;;;;42.80;18.38;;;5.00;99.90;;;;;;5054184;28;20041;-75
2022/01/19 14:14:55;;;;;;;55.20;21.15;;;4.90;99.90;;;;;;5081469;28;20092;-75
2022/01/19 14:17:29;;;;;;;47.33;18.42;;;4.40;99.90;;;;;;5057439;28;20047;-75
2022/01/19 14:19:56;;;;;;;54.60;18.60;;;4.40;99.90;;;;;;5057405;28;20061;-80